sensor_id;sensor_type;location;lat;lon;timestamp;P1;durP1;ratioP1;P2;durP2;ratioP2
34134;SDS011;20410;55.578;12.968;2023-02-01T00:01:36;14.93;;;4.07;;
34134;SDS011;20410;55.578;12.968;2023-02-01T00:04:02;18.73;;;4.97;;
34134;SDS011;20410;55.578;12.968;2023-02-01T00:06:28;18.33;;;4.63;;
34134;SDS011;20410;55.578;12.968;2023-02-01T00:08:54;16.00;;;4.40;;
34134;SDS011;20410;55.578;12.968;2023-02-01T00:11:20;20.30;;;4.33;;
34134;SDS011;20410;55.578;12.968;2023-02-01T00:13:47;15.90;;;4.30;;
34134;SDS011;20410;55.578;12.968;2023-02-01T00:18:51;17.97;;;4.80;;
34134;SDS011;20410;55.578;12.968;2023-02-01T00:21:21;17.30;;;4.20;;
34134;SDS011;20410;55.578;12.968;2023-02-01T00:23:47;11.73;;;3.67;;
34134;SDS011;20410;55.578;12.968;2023-02-01T00:26:17;15.53;;;3.60;;
34134;SDS011;20410;55.578;12.968;2023-02-01T00:28:44;19.57;;;4.40;;
34134;SDS011;20410;55.578;12.968;2023-02-01T00:31:11;14.83;;;4.73;;
34134;SDS011;20410;55.578;12.968;2023-02-01T00:33:37;19.00;;;4.67;;
34134;SDS011;20410;55.578;12.968;2023-02-01T00:36:05;16.73;;;4.43;;
34134;SDS011;20410;55.578;12.968;2023-02-01T00:38:33;16.40;;;4.53;;
34134;SDS011;20410;55.578;12.968;2023-02-01T00:41:05;20.43;;;4.97;;
34134;SDS011;20410;55.578;12.968;2023-02-01T00:47:07;20.40;;;5.07;;
34134;SDS011;20410;55.578;12.968;2023-02-01T00:49:41;20.30;;;4.80;;
34134;SDS011;20410;55.578;12.968;2023-02-01T00:52:26;14.17;;;4.50;;
34134;SDS011;20410;55.578;12.968;2023-02-01T00:54:55;20.90;;;4.90;;
34134;SDS011;20410;55.578;12.968;2023-02-01T01:00:13;18.77;;;5.00;;
34134;SDS011;20410;55.578;12.968;2023-02-01T01:02:41;21.97;;;5.13;;
34134;SDS011;20410;55.578;12.968;2023-02-01T01:05:07;16.47;;;4.57;;
34134;SDS011;20410;55.578;12.968;2023-02-01T01:07:32;15.17;;;4.67;;
34134;SDS011;20410;55.578;12.968;2023-02-01T01:09:58;22.53;;;5.47;;
34134;SDS011;20410;55.578;12.968;2023-02-01T01:12:24;24.13;;;5.83;;
34134;SDS011;20410;55.578;12.968;2023-02-01T01:14:50;25.20;;;5.43;;
34134;SDS011;20410;55.578;12.968;2023-02-01T01:17:15;26.17;;;6.63;;
34134;SDS011;20410;55.578;12.968;2023-02-01T01:19:41;19.40;;;5.17;;
34134;SDS011;20410;55.578;12.968;2023-02-01T01:22:07;21.70;;;4.73;;
34134;SDS011;20410;55.578;12.968;2023-02-01T01:24:32;20.90;;;4.93;;
34134;SDS011;20410;55.578;12.968;2023-02-01T01:26:58;20.60;;;5.50;;
34134;SDS011;20410;55.578;12.968;2023-02-01T01:29:24;20.13;;;5.00;;
34134;SDS011;20410;55.578;12.968;2023-02-01T01:31:50;19.87;;;4.97;;
34134;SDS011;20410;55.578;12.968;2023-02-01T01:34:15;20.40;;;5.33;;
34134;SDS011;20410;55.578;12.968;2023-02-01T01:36:41;17.83;;;4.60;;
34134;SDS011;20410;55.578;12.968;2023-02-01T01:39:06;19.27;;;5.20;;
34134;SDS011;20410;55.578;12.968;2023-02-01T01:41:32;22.33;;;5.17;;
34134;SDS011;20410;55.578;12.968;2023-02-01T01:44:02;22.27;;;5.37;;
34134;SDS011;20410;55.578;12.968;2023-02-01T01:46:32;14.57;;;5.00;;
34134;SDS011;20410;55.578;12.968;2023-02-01T01:51:31;20.93;;;5.40;;
34134;SDS011;20410;55.578;12.968;2023-02-01T01:54:21;21.70;;;5.97;;
34134;SDS011;20410;55.578;12.968;2023-02-01T01:57:01;19.70;;;4.77;;
34134;SDS011;20410;55.578;12.968;2023-02-01T01:59:32;21.57;;;4.87;;
34134;SDS011;20410;55.578;12.968;2023-02-01T02:02:01;19.97;;;4.37;;
34134;SDS011;20410;55.578;12.968;2023-02-01T02:05:04;19.10;;;5.33;;
34134;SDS011;20410;55.578;12.968;2023-02-01T02:07:35;19.83;;;5.30;;
34134;SDS011;20410;55.578;12.968;2023-02-01T02:10:50;21.53;;;5.23;;
34134;SDS011;20410;55.578;12.968;2023-02-01T02:13:35;20.00;;;4.60;;
34134;SDS011;20410;55.578;12.968;2023-02-01T02:21:29;21.00;;;5.33;;
34134;SDS011;20410;55.578;12.968;2023-02-01T02:37:00;19.77;;;5.00;;
34134;SDS011;20410;55.578;12.968;2023-02-01T02:45:18;24.40;;;5.67;;
34134;SDS011;20410;55.578;12.968;2023-02-01T02:48:25;21.50;;;4.90;;
34134;SDS011;20410;55.578;12.968;2023-02-01T02:51:41;23.73;;;5.80;;
34134;SDS011;20410;55.578;12.968;2023-02-01T02:54:55;21.63;;;4.87;;
34134;SDS011;20410;55.578;12.968;2023-02-01T02:57:29;20.63;;;5.30;;
34134;SDS011;20410;55.578;12.968;2023-02-01T03:00:27;24.07;;;5.57;;
34134;SDS011;20410;55.578;12.968;2023-02-01T03:06:36;23.67;;;5.97;;
34134;SDS011;20410;55.578;12.968;2023-02-01T03:09:08;19.53;;;5.37;;
34134;SDS011;20410;55.578;12.968;2023-02-01T03:11:39;24.87;;;5.40;;
34134;SDS011;20410;55.578;12.968;2023-02-01T03:14:27;19.43;;;6.17;;
34134;SDS011;20410;55.578;12.968;2023-02-01T03:16:58;22.60;;;5.30;;
34134;SDS011;20410;55.578;12.968;2023-02-01T03:19:34;23.40;;;5.50;;
34134;SDS011;20410;55.578;12.968;2023-02-01T03:22:04;24.67;;;6.03;;
34134;SDS011;20410;55.578;12.968;2023-02-01T03:27:19;19.37;;;5.27;;
34134;SDS011;20410;55.578;12.968;2023-02-01T03:32:55;23.13;;;5.23;;
34134;SDS011;20410;55.578;12.968;2023-02-01T03:35:33;24.93;;;5.73;;
34134;SDS011;20410;55.578;12.968;2023-02-01T03:41:09;25.87;;;5.80;;
34134;SDS011;20410;55.578;12.968;2023-02-01T03:43:42;23.53;;;6.27;;
34134;SDS011;20410;55.578;12.968;2023-02-01T03:46:35;20.63;;;5.80;;
34134;SDS011;20410;55.578;12.968;2023-02-01T03:49:49;26.30;;;5.67;;
34134;SDS011;20410;55.578;12.968;2023-02-01T03:55:47;22.53;;;5.73;;
34134;SDS011;20410;55.578;12.968;2023-02-01T03:58:18;24.63;;;6.20;;
34134;SDS011;20410;55.578;12.968;2023-02-01T04:03:49;27.83;;;6.57;;
34134;SDS011;20410;55.578;12.968;2023-02-01T04:06:16;28.20;;;7.47;;
34134;SDS011;20410;55.578;12.968;2023-02-01T04:08:42;28.83;;;7.00;;
34134;SDS011;20410;55.578;12.968;2023-02-01T04:13:46;25.40;;;6.80;;
34134;SDS011;20410;55.578;12.968;2023-02-01T04:16:12;18.40;;;5.50;;
34134;SDS011;20410;55.578;12.968;2023-02-01T04:18:38;27.53;;;6.63;;
34134;SDS011;20410;55.578;12.968;2023-02-01T04:21:04;34.87;;;7.23;;
34134;SDS011;20410;55.578;12.968;2023-02-01T04:23:35;31.43;;;6.20;;
34134;SDS011;20410;55.578;12.968;2023-02-01T04:26:04;26.47;;;6.57;;
34134;SDS011;20410;55.578;12.968;2023-02-01T04:28:30;27.53;;;6.57;;
34134;SDS011;20410;55.578;12.968;2023-02-01T04:30:56;35.00;;;7.20;;
34134;SDS011;20410;55.578;12.968;2023-02-01T04:33:22;32.93;;;7.53;;
34134;SDS011;20410;55.578;12.968;2023-02-01T04:35:47;27.23;;;6.60;;
34134;SDS011;20410;55.578;12.968;2023-02-01T04:38:13;22.27;;;6.33;;
34134;SDS011;20410;55.578;12.968;2023-02-01T04:40:42;24.60;;;6.03;;
34134;SDS011;20410;55.578;12.968;2023-02-01T04:43:07;31.17;;;7.10;;
34134;SDS011;20410;55.578;12.968;2023-02-01T04:45:33;19.90;;;6.00;;
34134;SDS011;20410;55.578;12.968;2023-02-01T04:47:59;27.77;;;5.47;;
34134;SDS011;20410;55.578;12.968;2023-02-01T04:50:25;24.30;;;5.40;;
34134;SDS011;20410;55.578;12.968;2023-02-01T04:52:50;25.70;;;5.60;;
34134;SDS011;20410;55.578;12.968;2023-02-01T04:55:16;26.30;;;5.90;;
34134;SDS011;20410;55.578;12.968;2023-02-01T04:57:42;21.97;;;5.83;;
34134;SDS011;20410;55.578;12.968;2023-02-01T05:00:08;29.97;;;6.87;;
34134;SDS011;20410;55.578;12.968;2023-02-01T05:02:44;26.10;;;6.37;;
34134;SDS011;20410;55.578;12.968;2023-02-01T05:05:19;28.90;;;6.57;;
34134;SDS011;20410;55.578;12.968;2023-02-01T05:07:45;20.63;;;5.50;;
34134;SDS011;20410;55.578;12.968;2023-02-01T05:10:14;19.80;;;5.70;;
34134;SDS011;20410;55.578;12.968;2023-02-01T05:12:40;25.80;;;5.40;;
34134;SDS011;20410;55.578;12.968;2023-02-01T05:15:27;25.90;;;5.97;;
34134;SDS011;20410;55.578;12.968;2023-02-01T05:17:53;21.60;;;5.33;;
34134;SDS011;20410;55.578;12.968;2023-02-01T05:20:44;24.03;;;5.40;;
34134;SDS011;20410;55.578;12.968;2023-02-01T05:23:29;19.70;;;5.53;;
34134;SDS011;20410;55.578;12.968;2023-02-01T05:26:13;23.90;;;5.97;;
34134;SDS011;20410;55.578;12.968;2023-02-01T05:28:51;20.10;;;5.57;;
34134;SDS011;20410;55.578;12.968;2023-02-01T05:32:00;23.97;;;5.43;;
34134;SDS011;20410;55.578;12.968;2023-02-01T05:34:34;19.43;;;5.30;;
34134;SDS011;20410;55.578;12.968;2023-02-01T05:40:16;19.17;;;4.87;;
34134;SDS011;20410;55.578;12.968;2023-02-01T05:42:50;16.47;;;4.63;;
34134;SDS011;20410;55.578;12.968;2023-02-01T05:45:16;17.83;;;4.33;;
34134;SDS011;20410;55.578;12.968;2023-02-01T05:47:45;16.97;;;4.43;;
34134;SDS011;20410;55.578;12.968;2023-02-01T05:50:11;15.03;;;4.17;;
34134;SDS011;20410;55.578;12.968;2023-02-01T05:52:37;17.83;;;4.60;;
34134;SDS011;20410;55.578;12.968;2023-02-01T05:55:02;13.77;;;3.87;;
34134;SDS011;20410;55.578;12.968;2023-02-01T05:57:37;10.87;;;3.37;;
34134;SDS011;20410;55.578;12.968;2023-02-01T06:00:06;8.60;;;3.13;;
34134;SDS011;20410;55.578;12.968;2023-02-01T06:02:32;17.20;;;3.83;;
34134;SDS011;20410;55.578;12.968;2023-02-01T06:04:58;12.30;;;3.90;;
34134;SDS011;20410;55.578;12.968;2023-02-01T06:07:26;12.73;;;3.50;;
34134;SDS011;20410;55.578;12.968;2023-02-01T06:12:55;10.50;;;3.00;;
34134;SDS011;20410;55.578;12.968;2023-02-01T06:15:21;8.53;;;2.90;;
34134;SDS011;20410;55.578;12.968;2023-02-01T06:17:47;12.33;;;3.17;;
34134;SDS011;20410;55.578;12.968;2023-02-01T06:20:15;9.50;;;2.80;;
34134;SDS011;20410;55.578;12.968;2023-02-01T06:23:07;7.63;;;2.90;;
34134;SDS011;20410;55.578;12.968;2023-02-01T06:25:35;9.97;;;3.50;;
34134;SDS011;20410;55.578;12.968;2023-02-01T06:28:33;8.07;;;3.47;;
34134;SDS011;20410;55.578;12.968;2023-02-01T06:31:04;11.33;;;3.33;;
34134;SDS011;20410;55.578;12.968;2023-02-01T06:39:44;13.43;;;3.27;;
34134;SDS011;20410;55.578;12.968;2023-02-01T06:42:10;13.80;;;3.53;;
34134;SDS011;20410;55.578;12.968;2023-02-01T06:45:06;10.37;;;3.30;;
34134;SDS011;20410;55.578;12.968;2023-02-01T06:47:32;12.53;;;3.13;;
34134;SDS011;20410;55.578;12.968;2023-02-01T06:49:58;9.27;;;3.03;;
34134;SDS011;20410;55.578;12.968;2023-02-01T06:52:26;9.87;;;4.10;;
34134;SDS011;20410;55.578;12.968;2023-02-01T06:54:52;10.40;;;3.43;;
34134;SDS011;20410;55.578;12.968;2023-02-01T06:57:17;9.70;;;2.80;;
34134;SDS011;20410;55.578;12.968;2023-02-01T06:59:43;12.93;;;3.60;;
34134;SDS011;20410;55.578;12.968;2023-02-01T07:02:11;15.00;;;3.47;;
34134;SDS011;20410;55.578;12.968;2023-02-01T07:04:37;12.60;;;3.73;;
34134;SDS011;20410;55.578;12.968;2023-02-01T07:07:03;14.53;;;3.60;;
34134;SDS011;20410;55.578;12.968;2023-02-01T07:09:29;11.43;;;3.53;;
34134;SDS011;20410;55.578;12.968;2023-02-01T07:11:54;15.67;;;3.83;;
34134;SDS011;20410;55.578;12.968;2023-02-01T07:14:20;14.70;;;4.00;;
34134;SDS011;20410;55.578;12.968;2023-02-01T07:16:46;13.73;;;3.80;;
34134;SDS011;20410;55.578;12.968;2023-02-01T07:19:14;13.43;;;3.37;;
34134;SDS011;20410;55.578;12.968;2023-02-01T07:21:40;8.93;;;3.40;;
34134;SDS011;20410;55.578;12.968;2023-02-01T07:24:06;18.00;;;4.13;;
34134;SDS011;20410;55.578;12.968;2023-02-01T07:26:31;19.53;;;3.80;;
34134;SDS011;20410;55.578;12.968;2023-02-01T07:28:57;10.53;;;3.53;;
34134;SDS011;20410;55.578;12.968;2023-02-01T07:31:24;13.40;;;3.40;;
34134;SDS011;20410;55.578;12.968;2023-02-01T07:33:51;12.93;;;3.50;;
34134;SDS011;20410;55.578;12.968;2023-02-01T07:36:17;16.13;;;4.17;;
34134;SDS011;20410;55.578;12.968;2023-02-01T07:38:44;11.47;;;3.70;;
34134;SDS011;20410;55.578;12.968;2023-02-01T07:41:11;12.07;;;3.47;;
34134;SDS011;20410;55.578;12.968;2023-02-01T07:43:37;12.50;;;3.20;;
34134;SDS011;20410;55.578;12.968;2023-02-01T07:46:22;17.83;;;4.53;;
34134;SDS011;20410;55.578;12.968;2023-02-01T07:48:48;14.60;;;3.70;;
34134;SDS011;20410;55.578;12.968;2023-02-01T07:51:15;10.57;;;4.13;;
34134;SDS011;20410;55.578;12.968;2023-02-01T07:53:41;14.43;;;4.20;;
34134;SDS011;20410;55.578;12.968;2023-02-01T07:56:18;18.57;;;4.97;;
34134;SDS011;20410;55.578;12.968;2023-02-01T07:58:48;14.47;;;3.63;;
34134;SDS011;20410;55.578;12.968;2023-02-01T08:01:23;12.10;;;3.63;;
34134;SDS011;20410;55.578;12.968;2023-02-01T08:03:51;12.97;;;4.50;;
34134;SDS011;20410;55.578;12.968;2023-02-01T08:06:17;12.57;;;3.07;;
34134;SDS011;20410;55.578;12.968;2023-02-01T08:08:44;12.17;;;3.47;;
34134;SDS011;20410;55.578;12.968;2023-02-01T08:11:10;14.37;;;3.87;;
34134;SDS011;20410;55.578;12.968;2023-02-01T08:13:36;11.60;;;3.60;;
34134;SDS011;20410;55.578;12.968;2023-02-01T08:16:03;11.23;;;3.23;;
34134;SDS011;20410;55.578;12.968;2023-02-01T08:18:30;10.47;;;4.37;;
34134;SDS011;20410;55.578;12.968;2023-02-01T08:20:56;9.63;;;3.43;;
34134;SDS011;20410;55.578;12.968;2023-02-01T08:23:22;14.77;;;4.40;;
34134;SDS011;20410;55.578;12.968;2023-02-01T08:25:54;13.30;;;3.77;;
34134;SDS011;20410;55.578;12.968;2023-02-01T08:28:28;12.03;;;3.57;;
34134;SDS011;20410;55.578;12.968;2023-02-01T08:30:54;11.87;;;3.43;;
34134;SDS011;20410;55.578;12.968;2023-02-01T08:33:19;12.50;;;3.63;;
34134;SDS011;20410;55.578;12.968;2023-02-01T08:35:45;8.00;;;3.07;;
34134;SDS011;20410;55.578;12.968;2023-02-01T08:38:11;12.97;;;3.03;;
34134;SDS011;20410;55.578;12.968;2023-02-01T08:40:36;8.87;;;3.07;;
34134;SDS011;20410;55.578;12.968;2023-02-01T08:43:02;11.30;;;3.70;;
34134;SDS011;20410;55.578;12.968;2023-02-01T08:45:28;12.60;;;3.47;;
34134;SDS011;20410;55.578;12.968;2023-02-01T08:47:55;10.40;;;3.30;;
34134;SDS011;20410;55.578;12.968;2023-02-01T08:50:21;9.70;;;3.07;;
34134;SDS011;20410;55.578;12.968;2023-02-01T08:52:47;8.63;;;3.63;;
34134;SDS011;20410;55.578;12.968;2023-02-01T08:55:14;8.37;;;3.07;;
34134;SDS011;20410;55.578;12.968;2023-02-01T08:57:43;14.13;;;3.20;;
34134;SDS011;20410;55.578;12.968;2023-02-01T09:00:11;11.97;;;3.10;;
34134;SDS011;20410;55.578;12.968;2023-02-01T09:02:45;13.73;;;3.23;;
34134;SDS011;20410;55.578;12.968;2023-02-01T09:05:28;13.03;;;3.40;;
34134;SDS011;20410;55.578;12.968;2023-02-01T09:07:54;10.90;;;3.43;;
34134;SDS011;20410;55.578;12.968;2023-02-01T09:10:28;12.53;;;3.73;;
34134;SDS011;20410;55.578;12.968;2023-02-01T09:12:55;11.73;;;3.13;;
34134;SDS011;20410;55.578;12.968;2023-02-01T09:15:20;11.73;;;3.67;;
34134;SDS011;20410;55.578;12.968;2023-02-01T09:17:58;9.70;;;3.40;;
34134;SDS011;20410;55.578;12.968;2023-02-01T09:20:24;12.17;;;3.70;;
34134;SDS011;20410;55.578;12.968;2023-02-01T09:22:54;10.73;;;3.10;;
34134;SDS011;20410;55.578;12.968;2023-02-01T09:25:41;13.37;;;3.17;;
34134;SDS011;20410;55.578;12.968;2023-02-01T09:28:07;9.83;;;2.90;;
34134;SDS011;20410;55.578;12.968;2023-02-01T09:30:34;10.77;;;3.73;;
34134;SDS011;20410;55.578;12.968;2023-02-01T09:33:00;10.50;;;3.37;;
34134;SDS011;20410;55.578;12.968;2023-02-01T09:35:26;10.00;;;3.33;;
34134;SDS011;20410;55.578;12.968;2023-02-01T09:37:52;13.73;;;3.80;;
34134;SDS011;20410;55.578;12.968;2023-02-01T09:40:21;13.83;;;3.30;;
34134;SDS011;20410;55.578;12.968;2023-02-01T09:46:26;14.10;;;3.27;;
34134;SDS011;20410;55.578;12.968;2023-02-01T09:48:58;10.40;;;3.23;;
34134;SDS011;20410;55.578;12.968;2023-02-01T09:51:41;10.07;;;3.27;;
34134;SDS011;20410;55.578;12.968;2023-02-01T09:54:15;13.30;;;3.93;;
34134;SDS011;20410;55.578;12.968;2023-02-01T09:56:47;12.57;;;3.83;;
34134;SDS011;20410;55.578;12.968;2023-02-01T10:01:59;10.60;;;3.43;;
34134;SDS011;20410;55.578;12.968;2023-02-01T10:04:35;10.10;;;2.77;;
34134;SDS011;20410;55.578;12.968;2023-02-01T10:22:52;9.43;;;3.23;;
34134;SDS011;20410;55.578;12.968;2023-02-01T10:27:56;11.00;;;3.13;;
34134;SDS011;20410;55.578;12.968;2023-02-01T10:30:27;10.70;;;3.10;;
34134;SDS011;20410;55.578;12.968;2023-02-01T10:35:41;15.17;;;4.00;;
34134;SDS011;20410;55.578;12.968;2023-02-01T10:38:17;14.80;;;3.50;;
34134;SDS011;20410;55.578;12.968;2023-02-01T10:43:58;17.37;;;3.43;;
34134;SDS011;20410;55.578;12.968;2023-02-01T10:46:25;12.10;;;2.97;;
34134;SDS011;20410;55.578;12.968;2023-02-01T10:48:52;13.17;;;3.70;;
34134;SDS011;20410;55.578;12.968;2023-02-01T10:53:58;11.37;;;4.20;;
34134;SDS011;20410;55.578;12.968;2023-02-01T10:56:28;12.10;;;3.40;;
34134;SDS011;20410;55.578;12.968;2023-02-01T10:58:59;17.67;;;4.50;;
34134;SDS011;20410;55.578;12.968;2023-02-01T11:01:39;14.20;;;4.07;;
34134;SDS011;20410;55.578;12.968;2023-02-01T11:04:10;17.60;;;4.70;;
34134;SDS011;20410;55.578;12.968;2023-02-01T11:07:56;13.53;;;3.93;;
34134;SDS011;20410;55.578;12.968;2023-02-01T11:18:14;15.33;;;3.63;;
34134;SDS011;20410;55.578;12.968;2023-02-01T11:21:03;15.70;;;3.87;;
34134;SDS011;20410;55.578;12.968;2023-02-01T11:27:15;11.73;;;3.50;;
34134;SDS011;20410;55.578;12.968;2023-02-01T11:29:50;17.33;;;3.40;;
34134;SDS011;20410;55.578;12.968;2023-02-01T11:32:21;14.30;;;3.37;;
34134;SDS011;20410;55.578;12.968;2023-02-01T11:34:52;12.90;;;3.37;;
34134;SDS011;20410;55.578;12.968;2023-02-01T11:37:40;12.77;;;3.33;;
34134;SDS011;20410;55.578;12.968;2023-02-01T11:40:34;14.17;;;3.67;;
34134;SDS011;20410;55.578;12.968;2023-02-01T11:43:53;12.23;;;3.70;;
34134;SDS011;20410;55.578;12.968;2023-02-01T11:46:37;10.20;;;3.30;;
34134;SDS011;20410;55.578;12.968;2023-02-01T11:49:35;10.60;;;3.13;;
34134;SDS011;20410;55.578;12.968;2023-02-01T11:58:58;10.70;;;3.33;;
34134;SDS011;20410;55.578;12.968;2023-02-01T12:02:03;11.57;;;3.10;;
34134;SDS011;20410;55.578;12.968;2023-02-01T12:08:21;14.93;;;4.07;;
34134;SDS011;20410;55.578;12.968;2023-02-01T12:46:53;8.37;;;2.87;;
34134;SDS011;20410;55.578;12.968;2023-02-01T12:52:46;10.47;;;3.20;;
34134;SDS011;20410;55.578;12.968;2023-02-01T12:55:22;14.03;;;3.57;;
34134;SDS011;20410;55.578;12.968;2023-02-01T12:58:13;11.83;;;3.63;;
34134;SDS011;20410;55.578;12.968;2023-02-01T13:00:59;19.67;;;3.90;;
34134;SDS011;20410;55.578;12.968;2023-02-01T13:11:44;11.03;;;3.07;;
34134;SDS011;20410;55.578;12.968;2023-02-01T13:16:53;9.10;;;3.10;;
34134;SDS011;20410;55.578;12.968;2023-02-01T13:19:29;9.53;;;3.10;;
34134;SDS011;20410;55.578;12.968;2023-02-01T13:22:00;14.37;;;4.03;;
34134;SDS011;20410;55.578;12.968;2023-02-01T13:24:36;11.23;;;3.30;;
34134;SDS011;20410;55.578;12.968;2023-02-01T13:27:11;10.87;;;3.10;;
34134;SDS011;20410;55.578;12.968;2023-02-01T13:29:41;13.27;;;3.30;;
34134;SDS011;20410;55.578;12.968;2023-02-01T13:41:35;9.97;;;2.87;;
34134;SDS011;20410;55.578;12.968;2023-02-01T13:44:50;8.30;;;3.07;;
34134;SDS011;20410;55.578;12.968;2023-02-01T13:47:53;12.60;;;3.40;;
34134;SDS011;20410;55.578;12.968;2023-02-01T13:53:21;11.67;;;3.80;;
34134;SDS011;20410;55.578;12.968;2023-02-01T13:56:00;16.33;;;3.90;;
34134;SDS011;20410;55.578;12.968;2023-02-01T13:58:42;14.50;;;3.63;;
34134;SDS011;20410;55.578;12.968;2023-02-01T14:07:15;11.53;;;3.63;;
34134;SDS011;20410;55.578;12.968;2023-02-01T14:09:43;15.07;;;4.10;;
34134;SDS011;20410;55.578;12.968;2023-02-01T14:18:02;16.13;;;4.20;;
34134;SDS011;20410;55.578;12.968;2023-02-01T14:24:25;19.03;;;4.57;;
34134;SDS011;20410;55.578;12.968;2023-02-01T14:31:19;16.20;;;4.13;;
34134;SDS011;20410;55.578;12.968;2023-02-01T14:41:37;12.03;;;3.67;;
34134;SDS011;20410;55.578;12.968;2023-02-01T14:56:06;16.93;;;4.67;;
34134;SDS011;20410;55.578;12.968;2023-02-01T15:01:35;15.80;;;4.37;;
34134;SDS011;20410;55.578;12.968;2023-02-01T15:04:27;21.87;;;5.03;;
34134;SDS011;20410;55.578;12.968;2023-02-01T15:07:29;22.53;;;5.20;;
34134;SDS011;20410;55.578;12.968;2023-02-01T15:09:58;20.60;;;4.80;;
34134;SDS011;20410;55.578;12.968;2023-02-01T15:12:25;18.17;;;4.57;;
34134;SDS011;20410;55.578;12.968;2023-02-01T15:15:17;27.27;;;5.73;;
34134;SDS011;20410;55.578;12.968;2023-02-01T15:17:53;24.33;;;4.50;;
34134;SDS011;20410;55.578;12.968;2023-02-01T15:20:55;23.40;;;5.40;;
34134;SDS011;20410;55.578;12.968;2023-02-01T15:23:41;22.00;;;4.77;;
34134;SDS011;20410;55.578;12.968;2023-02-01T15:26:23;28.83;;;5.23;;
34134;SDS011;20410;55.578;12.968;2023-02-01T15:28:50;20.83;;;4.60;;
34134;SDS011;20410;55.578;12.968;2023-02-01T15:31:31;18.40;;;4.33;;
34134;SDS011;20410;55.578;12.968;2023-02-01T15:33:58;15.67;;;4.57;;
34134;SDS011;20410;55.578;12.968;2023-02-01T15:36:45;19.83;;;5.17;;
34134;SDS011;20410;55.578;12.968;2023-02-01T15:39:21;20.37;;;4.57;;
34134;SDS011;20410;55.578;12.968;2023-02-01T15:42:00;29.17;;;8.47;;
34134;SDS011;20410;55.578;12.968;2023-02-01T15:44:41;21.87;;;6.13;;
34134;SDS011;20410;55.578;12.968;2023-02-01T15:47:18;23.83;;;5.30;;
34134;SDS011;20410;55.578;12.968;2023-02-01T15:49:54;20.20;;;4.87;;
34134;SDS011;20410;55.578;12.968;2023-02-01T15:52:34;18.07;;;4.60;;
34134;SDS011;20410;55.578;12.968;2023-02-01T15:55:08;15.10;;;4.07;;
34134;SDS011;20410;55.578;12.968;2023-02-01T15:57:54;17.40;;;4.43;;
34134;SDS011;20410;55.578;12.968;2023-02-01T16:00:25;17.57;;;4.90;;
34134;SDS011;20410;55.578;12.968;2023-02-01T16:06:54;19.17;;;4.70;;
34134;SDS011;20410;55.578;12.968;2023-02-01T16:09:23;20.87;;;4.40;;
34134;SDS011;20410;55.578;12.968;2023-02-01T16:12:03;15.57;;;5.00;;
34134;SDS011;20410;55.578;12.968;2023-02-01T16:14:50;21.00;;;4.87;;
34134;SDS011;20410;55.578;12.968;2023-02-01T16:17:19;21.07;;;4.97;;
34134;SDS011;20410;55.578;12.968;2023-02-01T16:20:08;19.60;;;4.63;;
34134;SDS011;20410;55.578;12.968;2023-02-01T16:22:37;25.10;;;5.13;;
34134;SDS011;20410;55.578;12.968;2023-02-01T16:25:03;21.23;;;4.57;;
34134;SDS011;20410;55.578;12.968;2023-02-01T16:27:29;22.97;;;5.37;;
34134;SDS011;20410;55.578;12.968;2023-02-01T16:29:58;23.47;;;5.73;;
34134;SDS011;20410;55.578;12.968;2023-02-01T16:32:24;24.57;;;5.97;;
34134;SDS011;20410;55.578;12.968;2023-02-01T16:34:51;19.03;;;5.20;;
34134;SDS011;20410;55.578;12.968;2023-02-01T16:40:14;24.83;;;5.47;;
34134;SDS011;20410;55.578;12.968;2023-02-01T16:46:11;24.37;;;5.47;;
34134;SDS011;20410;55.578;12.968;2023-02-01T16:48:55;24.13;;;6.27;;
34134;SDS011;20410;55.578;12.968;2023-02-01T16:55:20;27.53;;;6.70;;
34134;SDS011;20410;55.578;12.968;2023-02-01T16:57:54;22.20;;;6.97;;
34134;SDS011;20410;55.578;12.968;2023-02-01T17:07:38;28.13;;;6.13;;
34134;SDS011;20410;55.578;12.968;2023-02-01T17:11:12;32.43;;;6.87;;
34134;SDS011;20410;55.578;12.968;2023-02-01T17:13:15;24.93;;;5.90;;
34134;SDS011;20410;55.578;12.968;2023-02-01T17:16:24;29.17;;;6.80;;
34134;SDS011;20410;55.578;12.968;2023-02-01T17:18:36;29.70;;;7.57;;
34134;SDS011;20410;55.578;12.968;2023-02-01T17:21:05;30.90;;;6.40;;
34134;SDS011;20410;55.578;12.968;2023-02-01T17:23:34;32.00;;;6.73;;
34134;SDS011;20410;55.578;12.968;2023-02-01T17:25:59;33.47;;;7.53;;
34134;SDS011;20410;55.578;12.968;2023-02-01T17:28:27;30.60;;;7.33;;
34134;SDS011;20410;55.578;12.968;2023-02-01T17:30:53;30.33;;;6.70;;
34134;SDS011;20410;55.578;12.968;2023-02-01T17:33:33;29.00;;;7.07;;
34134;SDS011;20410;55.578;12.968;2023-02-01T17:36:00;29.20;;;6.23;;
34134;SDS011;20410;55.578;12.968;2023-02-01T17:38:27;30.93;;;7.90;;
34134;SDS011;20410;55.578;12.968;2023-02-01T17:40:56;32.33;;;6.67;;
34134;SDS011;20410;55.578;12.968;2023-02-01T17:43:31;41.03;;;7.37;;
34134;SDS011;20410;55.578;12.968;2023-02-01T17:46:05;33.93;;;7.23;;
34134;SDS011;20410;55.578;12.968;2023-02-01T17:48:36;32.30;;;7.00;;
34134;SDS011;20410;55.578;12.968;2023-02-01T17:51:03;32.73;;;6.90;;
34134;SDS011;20410;55.578;12.968;2023-02-01T17:53:29;30.87;;;7.13;;
34134;SDS011;20410;55.578;12.968;2023-02-01T17:55:55;32.50;;;7.03;;
34134;SDS011;20410;55.578;12.968;2023-02-01T17:58:25;36.33;;;7.10;;
34134;SDS011;20410;55.578;12.968;2023-02-01T18:00:54;37.20;;;7.83;;
34134;SDS011;20410;55.578;12.968;2023-02-01T18:03:27;33.73;;;7.03;;
34134;SDS011;20410;55.578;12.968;2023-02-01T18:05:55;34.47;;;7.00;;
34134;SDS011;20410;55.578;12.968;2023-02-01T18:08:23;39.00;;;8.83;;
34134;SDS011;20410;55.578;12.968;2023-02-01T18:10:53;31.33;;;9.00;;
34134;SDS011;20410;55.578;12.968;2023-02-01T18:13:23;39.97;;;11.03;;
34134;SDS011;20410;55.578;12.968;2023-02-01T18:15:52;36.17;;;7.37;;
34134;SDS011;20410;55.578;12.968;2023-02-01T18:18:18;29.37;;;7.20;;
34134;SDS011;20410;55.578;12.968;2023-02-01T18:20:44;32.27;;;7.00;;
34134;SDS011;20410;55.578;12.968;2023-02-01T18:23:15;38.53;;;7.93;;
34134;SDS011;20410;55.578;12.968;2023-02-01T18:25:42;33.33;;;7.60;;
34134;SDS011;20410;55.578;12.968;2023-02-01T18:28:14;31.63;;;7.90;;
34134;SDS011;20410;55.578;12.968;2023-02-01T18:30:41;30.67;;;6.70;;
34134;SDS011;20410;55.578;12.968;2023-02-01T18:33:15;28.70;;;7.23;;
34134;SDS011;20410;55.578;12.968;2023-02-01T18:35:45;37.07;;;7.60;;
34134;SDS011;20410;55.578;12.968;2023-02-01T18:38:11;26.63;;;6.23;;
34134;SDS011;20410;55.578;12.968;2023-02-01T18:43:20;27.47;;;7.20;;
34134;SDS011;20410;55.578;12.968;2023-02-01T18:45:46;32.30;;;7.23;;
34134;SDS011;20410;55.578;12.968;2023-02-01T18:48:21;31.00;;;7.07;;
34134;SDS011;20410;55.578;12.968;2023-02-01T18:50:47;29.53;;;6.77;;
34134;SDS011;20410;55.578;12.968;2023-02-01T18:53:18;30.63;;;7.47;;
34134;SDS011;20410;55.578;12.968;2023-02-01T18:55:48;40.33;;;7.60;;
34134;SDS011;20410;55.578;12.968;2023-02-01T18:58:14;34.10;;;8.27;;
34134;SDS011;20410;55.578;12.968;2023-02-01T19:00:42;36.83;;;8.50;;
34134;SDS011;20410;55.578;12.968;2023-02-01T19:03:09;29.83;;;6.97;;
34134;SDS011;20410;55.578;12.968;2023-02-01T19:06:00;23.47;;;6.87;;
34134;SDS011;20410;55.578;12.968;2023-02-01T19:08:26;26.93;;;6.50;;
34134;SDS011;20410;55.578;12.968;2023-02-01T19:10:52;26.27;;;6.10;;